createdAt,value
2023-01-09T00:08:38.389Z,97263.75
2023-01-09T00:18:39.757Z,97251.44
2023-01-09T00:28:41.726Z,97260.53
2023-01-09T00:38:43.087Z,97262.63
2023-01-09T00:48:44.586Z,97253.53
2023-01-09T00:58:45.951Z,97263.69
2023-01-09T01:08:47.384Z,97270.56
2023-01-09T01:18:48.819Z,97281.84
2023-01-09T01:28:50.203Z,97285.59
2023-01-09T01:38:51.584Z,97289.56
2023-01-09T01:48:57.001Z,97287.69
2023-01-09T01:59:08.728Z,97287.84
2023-01-09T02:09:11.250Z,97310.66
2023-01-09T02:19:38.603Z,97313.00
2023-01-09T02:30:05.725Z,97309.50
2023-01-09T02:40:16.377Z,97315.69
2023-01-09T02:50:27.700Z,97304.13
2023-01-09T03:00:45.645Z,97321.25
2023-01-09T03:10:52.522Z,97331.44
2023-01-09T03:20:53.929Z,97339.66
2023-01-09T03:30:55.567Z,97357.84
2023-01-09T03:40:57.000Z,97375.75
2023-01-09T03:50:58.567Z,97387.78
2023-01-09T04:01:01.377Z,97383.13
2023-01-09T04:11:03.376Z,97379.06
2023-01-09T04:21:04.921Z,97383.22
2023-01-09T04:31:06.464Z,97389.28
2023-01-09T04:41:07.886Z,97409.78
2023-01-09T04:51:09.263Z,97428.63
2023-01-09T05:01:10.785Z,97437.94
2023-01-09T05:11:12.194Z,97435.72
2023-01-09T05:21:13.613Z,97442.03
2023-01-09T05:31:15.030Z,97449.38
2023-01-09T05:41:16.405Z,97442.78
2023-01-09T05:51:17.825Z,97438.53
2023-01-09T06:01:19.241Z,97460.41
2023-01-09T06:11:20.681Z,97464.56
2023-01-09T06:21:22.076Z,97464.75
2023-01-09T06:31:24.102Z,97479.56
2023-01-09T06:41:25.475Z,97482.00
2023-01-09T06:51:26.991Z,97484.94
2023-01-09T07:01:28.466Z,97482.50
2023-01-09T07:11:30.040Z,97487.88
2023-01-09T07:21:32.828Z,97482.50
2023-01-09T07:31:34.432Z,97487.59
2023-01-09T07:41:35.992Z,97498.53
2023-01-09T07:51:42.645Z,97504.72
2023-01-09T08:01:44.280Z,97510.56
2023-01-09T08:11:45.931Z,97515.09
2023-01-09T08:21:47.377Z,97530.41
2023-01-09T08:31:48.772Z,97533.19
2023-01-09T08:42:08.776Z,97528.63
2023-01-09T08:52:10.197Z,97534.69
2023-01-09T09:02:11.759Z,97551.38
2023-01-09T09:12:13.157Z,97562.69
2023-01-09T09:22:14.720Z,97585.81
2023-01-09T09:32:16.264Z,97590.94
2023-01-09T09:42:49.821Z,97601.41
2023-01-09T09:52:52.272Z,97614.13
2023-01-09T10:02:58.229Z,97623.81
2023-01-09T10:13:00.135Z,97627.91
2023-01-09T10:23:10.418Z,97628.25
2023-01-09T10:33:27.022Z,97630.94
2023-01-09T10:43:54.432Z,97635.34
2023-01-09T10:53:56.153Z,97641.91
2023-01-09T11:04:02.068Z,97631.31
2023-01-09T11:14:31.216Z,97622.47
2023-01-09T11:24:32.836Z,97623.03
2023-01-09T11:34:34.642Z,97627.91
2023-01-09T11:44:36.009Z,97636.69
2023-01-09T11:54:37.905Z,97643.19
2023-01-09T12:04:54.853Z,97654.25
2023-01-09T12:15:18.535Z,97675.53
2023-01-09T12:25:34.745Z,97689.94
2023-01-09T12:36:00.967Z,97682.78
2023-01-09T12:46:15.462Z,97686.03
2023-01-09T12:56:20.224Z,97701.34
2023-01-09T13:06:21.801Z,97707.31
2023-01-09T13:16:42.204Z,97728.31
2023-01-09T13:26:46.248Z,97737.69
2023-01-09T13:36:49.672Z,97755.03
2023-01-09T13:46:55.834Z,97763.19
2023-01-09T13:57:17.074Z,97781.28
2023-01-09T14:07:20.777Z,97796.13
2023-01-09T14:17:44.609Z,97819.41
2023-01-09T14:27:54.737Z,97845.56
2023-01-09T14:38:04.587Z,97856.91
2023-01-09T14:48:06.303Z,97875.56
2023-01-09T14:58:31.568Z,97910.38
2023-01-09T15:08:33.226Z,97934.28
2023-01-09T15:18:42.283Z,97948.16
2023-01-09T15:28:43.843Z,97980.03
2023-01-09T15:38:45.251Z,97996.47
2023-01-09T15:48:46.646Z,98022.94
2023-01-09T15:58:48.897Z,98028.41
2023-01-09T16:08:52.147Z,98046.81
2023-01-09T16:18:54.268Z,98063.78
2023-01-09T16:28:55.726Z,98079.75
2023-01-09T16:38:57.402Z,98092.56
2023-01-09T16:48:59.527Z,98113.91
2023-01-09T16:59:01.072Z,98127.38
2023-01-09T17:09:02.459Z,98141.03
2023-01-09T17:19:04.677Z,98159.63
2023-01-09T17:29:07.097Z,98160.06
2023-01-09T17:39:10.241Z,98183.63
2023-01-09T17:49:19.530Z,98205.75
2023-01-09T17:59:20.974Z,98224.09
2023-01-09T18:09:22.358Z,98240.22
2023-01-09T18:19:23.891Z,98263.97
2023-01-09T18:29:25.340Z,98275.72
2023-01-09T18:39:27.313Z,98289.38
2023-01-09T18:49:28.718Z,98307.75
2023-01-09T18:59:30.245Z,98322.19
2023-01-09T19:09:32.025Z,98345.94
2023-01-09T19:19:33.579Z,98353.00
2023-01-09T19:29:36.660Z,98372.16
2023-01-09T19:39:38.332Z,98384.97
2023-01-09T19:49:39.825Z,98400.66
2023-01-09T19:59:43.183Z,98410.19
2023-01-09T20:09:44.670Z,98434.31
2023-01-09T20:19:46.109Z,98460.72
2023-01-09T20:29:47.844Z,98474.31
2023-01-09T20:39:52.933Z,98499.28
2023-01-09T20:49:54.393Z,98512.28
2023-01-09T20:59:55.765Z,98546.13
2023-01-09T21:09:57.137Z,98559.28
2023-01-09T21:19:58.517Z,98581.97
2023-01-09T21:29:59.893Z,98602.19
2023-01-09T21:40:01.526Z,98617.03
2023-01-09T21:50:02.918Z,98637.25
2023-01-09T22:00:04.651Z,98655.56
2023-01-09T22:10:06.603Z,98668.72
2023-01-09T22:20:09.370Z,98697.63
2023-01-09T22:30:11.650Z,98707.91
2023-01-09T22:40:13.622Z,98739.03
2023-01-09T22:50:15.487Z,98761.91
2023-01-09T23:00:17.301Z,98786.63
2023-01-09T23:10:18.866Z,98802.94
2023-01-09T23:20:20.253Z,98819.84
2023-01-09T23:30:21.709Z,98845.16
2023-01-09T23:40:23.084Z,98868.84
2023-01-09T23:50:24.462Z,98883.50
